Flight Track Log - Related Links

Times and Time Zones

All times are in EDT time to prevent confusion due to time zone crossing. See the JZA7895 flight status page for this flight to view local times or setup timezone preferences in your user account.

Time Position Orientation Groundspeed Altitude Reporting Facility
EDT Latitude Longitude Course Direction KTS MPH feet Rate Location/Type
Mon 08:48:15 PM 43.6167 -79.6167 206° Southwest 150 173 2,100  Level Toronto Center
Mon 08:49:15 PM 43.5667 -79.6167 180° South 170 196 2,900 900 Climbing Toronto Center
Mon 08:50:15 PM 43.5167 -79.6333 194° South 170 196 3,900 1,000 Climbing Toronto Center
Mon 08:51:15 PM 43.4667 -79.6333 180° South 170 196 4,900 950 Climbing Toronto Center
Mon 08:52:00 PM 43.3325 -79.9006 206° Southwest  Level FlightAware Approximate
Mon 08:52:15 PM 43.4333 -79.7000 235° Southwest 180 207 5,800  Level Toronto Center
Mon 08:53:00 PM 43.6133 -79.6523 206° Southwest  Level FlightAware Approximate
Mon 08:53:15 PM 43.4167 -79.7500 245° Southwest 180 207 6,800  Level Toronto Center
Mon 08:54:15 PM 43.3667 -79.8000 216° Southwest 180 207 7,700 850 Climbing Toronto Center
Mon 08:55:15 PM 43.3333 -79.8667 236° Southwest 190 219 8,500 750 Climbing Toronto Center
Mon 08:56:15 PM 43.3000 -79.9000 216° Southwest 190 219 9,200 800 Climbing Toronto Center
Mon 08:57:15 PM 43.2667 -79.9833 241° Southwest 200 230 10,100 900 Climbing Toronto Center
Mon 08:58:15 PM 43.2333 -80.0167 216° Southwest 190 219 11,000 850 Climbing Toronto Center
Mon 08:59:15 PM 43.2000 -80.0833 236° Southwest 200 230 11,800 500 Climbing Toronto Center
Mon 09:00:15 PM 43.1667 -80.1333 228° Southwest 200 230 12,000 200 Climbing Toronto Center
Mon 09:01:15 PM 43.1167 -80.2000 224° Southwest 230 265 12,200 400 Climbing Toronto Center
Mon 09:02:15 PM 43.0833 -80.2667 236° Southwest 230 265 12,800 700 Climbing Toronto Center
Mon 09:03:15 PM 43.0500 -80.3333 236° Southwest 220 253 13,600 750 Climbing Toronto Center
Mon 09:04:15 PM 43.0000 -80.4000 224° Southwest 220 253 14,300 650 Climbing Toronto Center
Mon 09:05:15 PM 42.9667 -80.4500 228° Southwest 220 253 14,900 550 Climbing Toronto Center
Mon 09:06:15 PM 42.9167 -80.5167 224° Southwest 230 265 15,400 550 Climbing Toronto Center
Mon 09:07:15 PM 42.8833 -80.5833 236° Southwest 230 265 16,000 600 Climbing Toronto Center
Mon 09:08:15 PM 42.8333 -80.6500 224° Southwest 230 265 16,600 600 Climbing Toronto Center
Mon 09:09:15 PM 42.8000 -80.7167 236° Southwest 230 265 17,200 550 Climbing Toronto Center
Mon 09:10:15 PM 42.7500 -80.7833 224° Southwest 230 265 17,700 500 Climbing Toronto Center
Mon 09:11:15 PM 42.7000 -80.8500 224° Southwest 230 265 18,200 500 Climbing Toronto Center
Mon 09:12:15 PM 42.6500 -80.9000 216° Southwest 230 265 18,700 450 Climbing Toronto Center
Mon 09:13:15 PM 42.5833 -80.9500 209° Southwest 230 265 19,100 600 Climbing Toronto Center
Mon 09:14:15 PM 42.5333 -80.9833 206° Southwest 230 265 19,900 650 Climbing Toronto Center
Mon 09:15:15 PM 42.4833 -81.0333 216° Southwest 210 242 20,400 400 Climbing Toronto Center
Mon 09:16:15 PM 42.4333 -81.0500 194° South 210 242 20,700 350 Climbing Toronto Center
Mon 09:17:15 PM 42.3833 -81.1000 216° Southwest 220 253 21,100 454 Climbing Toronto Center
Mon 09:18:14 PM 42.3167 -81.1500 209° Southwest 220 253 21,600 454 Climbing Toronto Center
Mon 09:19:14 PM 42.2667 -81.1667 194° South 220 253 22,000 200 Climbing Toronto Center
Mon 09:20:14 PM 42.2000 -81.2167 209° Southwest 230 265 22,000  Level Toronto Center
Mon 09:20:44 PM 42.2011 -81.2444 273° West 230 265 22,000  Level Cleveland Center
Mon 09:21:45 PM 42.1389 -81.2861 206° Southwest 244 281 22,000  Level Cleveland Center
Mon 09:22:47 PM 42.0753 -81.3294 207° Southwest 249 287 22,000  Level Cleveland Center
Mon 09:23:49 PM 42.0092 -81.3722 206° Southwest 259 298 22,000  Level Cleveland Center
Mon 09:24:50 PM 41.9336 -81.4244 207° Southwest 260 299 22,000  Level Cleveland Center
Mon 09:25:52 PM 41.8675 -81.4694 207° Southwest 260 299 22,000  Level Cleveland Center
Mon 09:26:54 PM 41.8019 -81.5122 206° Southwest 260 299 22,000  Level Cleveland Center
Mon 09:27:55 PM 41.7358 -81.5564 207° Southwest 262 302 22,000  Level Cleveland Center
Mon 09:28:57 PM 41.6703 -81.6006 207° Southwest 262 302 22,000  Level Cleveland Center
Mon 09:29:59 PM 41.6042 -81.6450 207° Southwest 262 302 22,000  Level Cleveland Center
Mon 09:31:00 PM 41.5378 -81.6889 206° Southwest 262 302 22,000  Level Cleveland Center
Mon 09:32:02 PM 41.4722 -81.7328 207° Southwest 262 302 22,000  Level Cleveland Center
Mon 09:33:04 PM 41.4075 -81.7764 207° Southwest 262 302 22,000  Level Cleveland Center
Mon 09:34:05 PM 41.3361 -81.8231 206° Southwest 262 302 22,000  Level Cleveland Center
Mon 09:35:07 PM 41.2717 -81.8658 207° Southwest 261 300 22,000 -194 Level Cleveland Center
Mon 09:36:09 PM 41.2081 -81.9072 206° Southwest 258 297 21,600 -927 Descending Cleveland Center
Mon 09:37:10 PM 41.1350 -81.9542 206° Southwest 287 330 20,100 -1,512 Descending Cleveland Center
Mon 09:38:12 PM 41.0506 -82.0092 206° Southwest 313 360 18,500 -1,463 Descending Cleveland Center
Mon 09:39:13 PM 40.9725 -82.0600 206° Southwest 310 357 17,100 -1,463 Descending Cleveland Center
Mon 09:40:15 PM 40.8958 -82.1094 206° Southwest 308 354 15,500 -1,597 Descending Cleveland Center
Mon 09:41:17 PM 40.8078 -82.1661 206° Southwest 302 348 13,800 -1,512 Descending Cleveland Center
Mon 09:42:18 PM 40.7353 -82.2136 206° Southwest 292 336 12,400 -1,366 Descending Cleveland Center
Mon 09:43:20 PM 40.6636 -82.2589 206° Southwest 288 331 11,000 -1,000 Descending Cleveland Center
Mon 09:44:48 PM 40.5636 -82.3261 207° Southwest 275 316 9,900 -420 Descending Indianapolis Center
Mon 09:45:43 PM 40.5075 -82.3697 211° Southwest 254 292 10,000 86 Climbing Indianapolis Center
Mon 09:45:58 PM 40.4992 -82.3744 203° Southwest 261 300 10,000 -100 Level Indianapolis Center
Mon 09:46:43 PM 40.4575 -82.4333 227° Southwest 253 291 9,900  Descending Indianapolis Center
Mon 09:47:00 PM 40.4419 -82.4547 226° Southwest 258 297 10,000 72 Climbing Indianapolis Center
Mon 09:49:30 PM 40.3189 -82.6139 225° Southwest 254 292 10,100 -284 Climbing Cleveland Center
Mon 09:50:31 PM 40.2742 -82.6875 231° Southwest 255 293 9,000 -1,200 Descending Cleveland Center
Mon 09:51:05 PM 40.2461 -82.7328 231° Southwest 266 306 8,200 -1,457 Descending Indianapolis Center
Mon 09:51:41 PM 40.2178 -82.7828 233° Southwest 273 314 7,300 -1,279 Descending Indianapolis Center
Mon 09:52:06 PM 40.2028 -82.8117 236° Southwest 266 306 6,900 -1,400 Descending Indianapolis Center
Mon 09:52:41 PM 40.1794 -82.8561 236° Southwest 249 287 5,900 -1,452 Descending Indianapolis Center
Mon 09:53:08 PM 40.1642 -82.8853 236° Southwest 251 289 5,400 -1,475 Descending Indianapolis Center
Mon 09:53:42 PM 40.1414 -82.9267 234° Southwest 238 274 4,400 -1,475 Descending Indianapolis Center
Mon 09:54:09 PM 40.1267 -82.9544 235° Southwest 239 275 3,900 -1,309 Descending Indianapolis Center
Mon 09:54:37 PM 40.1031 -82.9753 214° Southwest 199 229 3,200 -1,082 Descending Indianapolis Center
Mon 09:55:10 PM 40.0781 -82.9842 195° South 206 237 2,800 -900 Descending Indianapolis Center
Mon 09:55:37 PM 40.0511 -82.9917 192° South 167 192 2,300 -581 Descending Indianapolis Center
Mon 09:56:12 PM 40.0306 -82.9922 181° South 186 214 2,200 -492 Descending Indianapolis Center
Mon 09:56:38 PM 40.0122 -82.9797 152° Southeast 134 154 1,800 -590 Descending Indianapolis Center
Mon 09:57:13 PM 40.0069 -82.9594 109° East 153 176 1,600 -590 Descending Indianapolis Center
Mon 09:57:39 PM 40.0036 -82.9375 101° East 113 130 1,200 -590 Descending Indianapolis Center
Mon 09:58:14 PM 40.0031 -82.9172 92° East 130 150 1,000 -343 Descending Indianapolis Center

Login

Don't have an account? Register now (free) for customized features, flight alerts, and more!